Time;durP1;ratioP1;P1;durP2;ratioP2;P2;SDS_P1;SDS_P2;PMS_P1;PMS_P2;Temp;Humidity;BMP_temperature;BMP_pressure;BME280_temperature;BME280_humidity;BME280_pressure;Samples;Min_cycle;Max_cycle;Signal;HPM_P1;HPM_P2
2021/07/11 00:00:17;;;;;;;;;;;15.10;99.90;;;;;;4939707;29;19958;-75
2021/07/11 00:02:48;;;;;;;;;;;15.10;99.90;;;;;;4920183;29;20018;-75
2021/07/11 00:05:21;;;;;;;;;;;15.20;99.90;;;;;;4922214;29;20461;-75
2021/07/11 00:07:53;;;;;;;;;;;15.20;99.90;;;;;;4908473;29;20021;-74
2021/07/11 00:10:25;;;;;;;;;;;15.20;99.90;;;;;;4940849;29;20527;-74
2021/07/11 00:12:52;;;;;;;;;;;15.30;99.90;;;;;;4920023;29;20025;-75
2021/07/11 00:15:22;;;;;;;;;;;15.20;99.90;;;;;;4917800;29;19931;-74
2021/07/11 00:17:55;;;;;;;;;;;15.30;99.90;;;;;;4913332;29;19946;-75
2021/07/11 00:20:27;;;;;;;;;;;15.30;99.90;;;;;;4923594;29;19926;-75
2021/07/11 00:22:59;;;;;;;;;;;15.30;99.90;;;;;;4904271;29;19934;-74
2021/07/11 00:25:30;;;;;;;;;;;15.30;99.90;;;;;;4927199;29;19927;-75
2021/07/11 00:28:02;;;;;;;;;;;15.40;99.90;;;;;;4932947;29;20461;-75
2021/07/11 00:30:29;;;;;;;;;;;15.40;99.90;;;;;;4923681;29;20350;-75
2021/07/11 00:33:01;;;;;;;;;;;15.40;99.90;;;;;;4919240;29;19927;-75
2021/07/11 00:35:32;;;;;;;;;;;15.40;99.90;;;;;;4937457;29;19977;-75
2021/07/11 00:37:59;;;;;;;;;;;15.40;99.90;;;;;;4919579;29;19983;-75
2021/07/11 00:40:31;;;;;;;;;;;15.40;99.90;;;;;;4905666;29;19938;-75
2021/07/11 00:43:03;;;;;;;;;;;15.40;99.90;;;;;;4919412;29;19946;-75
2021/07/11 00:45:38;;;;;;;;;;;15.40;99.90;;;;;;4905495;29;19934;-75
2021/07/11 00:48:12;;;;;;;;;;;15.40;99.90;;;;;;4925208;29;19927;-74
2021/07/11 00:50:45;;;;;;;;;;;15.40;99.90;;;;;;4904329;29;19927;-74
2021/07/11 00:53:14;;;;;;;;;;;15.40;99.90;;;;;;4915864;29;19935;-75
2021/07/11 00:55:47;;;;;;;;;;;15.30;99.90;;;;;;4895688;29;19934;-75
2021/07/11 00:58:14;;;;;;;;;;;15.30;99.90;;;;;;4923200;29;19926;-75
2021/07/11 01:00:51;;;;;;;;;;;15.30;99.90;;;;;;4917467;29;20394;-74
2021/07/11 01:03:23;;;;;;;;;;;15.20;99.90;;;;;;4912706;29;20698;-74
2021/07/11 01:05:53;;;;;;;;;;;15.20;99.90;;;;;;4926016;29;19927;-74
2021/07/11 01:08:38;;;;;;;;;;;15.20;99.90;;;;;;4921537;29;19927;-74
2021/07/11 01:11:09;;;;;;;;;;;15.10;99.90;;;;;;4900619;29;19934;-74
2021/07/11 01:13:37;;;;;;;;;;;15.10;99.90;;;;;;4902964;29;19930;-74
2021/07/11 01:16:09;;;;;;;;;;;15.10;99.90;;;;;;4907979;29;20286;-75
2021/07/11 01:18:39;;;;;;;;;;;15.10;99.90;;;;;;4916749;29;19927;-74
2021/07/11 01:21:11;;;;;;;;;;;15.10;99.90;;;;;;4900479;29;19931;-75
2021/07/11 01:23:52;;;;;;;;;;;15.10;99.90;;;;;;4901613;29;19931;-75
2021/07/11 01:26:28;;;;;;;;;;;15.10;99.90;;;;;;4904292;29;19927;-74
2021/07/11 01:29:00;;;;;;;;;;;15.00;99.90;;;;;;4915985;29;19983;-74
2021/07/11 01:31:30;;;;;;;;;;;14.90;99.90;;;;;;4918818;29;19931;-75
2021/07/11 01:34:02;;;;;;;;;;;14.90;99.90;;;;;;4904252;29;19975;-74
2021/07/11 01:36:35;;;;;;;;;;;14.80;99.90;;;;;;4904715;29;20297;-75
2021/07/11 01:39:03;;;;;;;;;;;14.80;99.90;;;;;;4919536;29;19934;-75
2021/07/11 01:41:40;;;;;;;;;;;14.70;99.90;;;;;;4904889;29;19938;-74
2021/07/11 01:44:08;;;;;;;;;;;14.70;99.90;;;;;;4904054;29;19927;-75
2021/07/11 01:46:44;;;;;;;;;;;14.70;99.90;;;;;;4920952;29;20402;-74
2021/07/11 01:49:17;;;;;;;;;;;14.70;99.90;;;;;;4919350;29;19958;-75
2021/07/11 01:51:50;;;;;;;;;;;14.60;99.90;;;;;;4919044;29;19926;-75
2021/07/11 01:54:26;;;;;;;;;;;14.50;99.90;;;;;;4919285;29;19927;-75
2021/07/11 01:56:59;;;;;;;;;;;14.50;99.90;;;;;;4904428;29;19938;-74
2021/07/11 01:59:33;;;;;;;;;;;14.50;99.90;;;;;;4919417;29;19926;-74
2021/07/11 02:02:09;;;;;;;;;;;14.50;99.90;;;;;;4936020;29;19930;-74
2021/07/11 02:04:48;;;;;;;;;;;14.50;99.90;;;;;;4904776;29;20390;-74
2021/07/11 02:07:15;;;;;;;;;;;14.50;99.90;;;;;;4919124;29;20022;-74
2021/07/11 02:09:42;;;;;;;;;;;14.40;99.90;;;;;;4919114;29;19927;-74
2021/07/11 02:12:20;;;;;;;;;;;14.40;99.90;;;;;;4918640;29;20365;-75
2021/07/11 02:14:53;;;;;;;;;;;14.30;99.90;;;;;;4903900;29;19927;-74
2021/07/11 02:17:24;;;;;;;;;;;14.30;99.90;;;;;;4903553;29;19954;-74
2021/07/11 02:20:15;;;;;;;;;;;14.30;99.90;;;;;;4906297;29;19949;-74
2021/07/11 02:22:46;;;;;;;;;;;14.30;99.90;;;;;;4918388;29;19926;-74
2021/07/11 02:25:21;;;;;;;;;;;14.30;99.90;;;;;;4918771;29;19927;-74
2021/07/11 02:28:00;;;;;;;;;;;14.20;99.90;;;;;;4918703;29;20421;-74
2021/07/11 02:30:51;;;;;;;;;;;14.30;99.90;;;;;;4904104;29;19927;-75
2021/07/11 02:33:28;;;;;;;;;;;14.20;99.90;;;;;;4903450;29;19966;-74
2021/07/11 02:36:00;;;;;;;;;;;14.20;99.90;;;;;;4903453;29;19958;-74
2021/07/11 02:38:36;;;;;;;;;;;14.20;99.90;;;;;;4918571;29;19927;-75
2021/07/11 02:41:10;;;;;;;;;;;14.20;99.90;;;;;;4903371;29;20398;-74
2021/07/11 02:43:43;;;;;;;;;;;14.20;99.90;;;;;;4918330;29;20478;-74
2021/07/11 02:46:13;;;;;;;;;;;14.30;99.90;;;;;;4903473;29;19927;-75
2021/07/11 02:48:41;;;;;;;;;;;14.30;99.90;;;;;;4903266;29;19930;-74
2021/07/11 02:51:11;;;;;;;;;;;14.40;99.90;;;;;;4918301;29;19931;-75
2021/07/11 02:53:45;;;;;;;;;;;14.50;99.90;;;;;;4919490;29;19926;-75
2021/07/11 02:56:15;;;;;;;;;;;14.50;99.90;;;;;;4902703;29;19927;-74
2021/07/11 02:58:43;;;;;;;;;;;14.50;99.90;;;;;;4902542;29;19927;-75
2021/07/11 03:01:16;;;;;;;;;;;14.40;99.90;;;;;;4902921;29;19933;-75
2021/07/11 03:03:48;;;;;;;;;;;14.40;99.90;;;;;;4918038;29;19926;-74
2021/07/11 03:06:17;;;;;;;;;;;14.40;99.90;;;;;;4902677;29;19927;-74
2021/07/11 03:08:49;;;;;;;;;;;14.40;99.90;;;;;;4918409;29;20292;-75
2021/07/11 03:11:23;;;;;;;;;;;14.30;99.90;;;;;;4949582;29;19933;-75
2021/07/11 03:13:57;;;;;;;;;;;14.30;99.90;;;;;;4903107;29;19933;-75
2021/07/11 03:16:35;;;;;;;;;;;14.30;99.90;;;;;;4903234;29;19933;-75
2021/07/11 03:19:11;;;;;;;;;;;14.30;99.90;;;;;;4917909;29;20385;-75
2021/07/11 03:21:38;;;;;;;;;;;14.30;99.90;;;;;;4917572;29;19926;-75
2021/07/11 03:24:11;;;;;;;;;;;14.30;99.90;;;;;;4917854;29;19926;-75
2021/07/11 03:26:43;;;;;;;;;;;14.30;99.90;;;;;;4917842;29;20028;-75
2021/07/11 03:29:17;;;;;;;;;;;14.20;99.90;;;;;;4917745;29;19934;-75
2021/07/11 03:31:45;;;;;;;;;;;14.20;99.90;;;;;;4917598;29;19985;-75
2021/07/11 03:34:13;;;;;;;;;;;14.20;99.90;;;;;;4917673;29;19930;-75
2021/07/11 03:36:45;;;;;;;;;;;14.20;99.90;;;;;;4902724;29;19986;-75
2021/07/11 03:39:18;;;;;;;;;;;14.20;99.90;;;;;;4934909;29;20430;-75
2021/07/11 03:41:45;;;;;;;;;;;14.20;99.90;;;;;;4901695;29;19931;-75
2021/07/11 03:44:15;;;;;;;;;;;14.10;99.90;;;;;;4917624;29;19927;-75
2021/07/11 03:46:48;;;;;;;;;;;14.10;99.90;;;;;;4917969;29;20354;-75
2021/07/11 03:49:16;;;;;;;;;;;14.10;99.90;;;;;;4901915;29;19972;-75
2021/07/11 03:51:44;;;;;;;;;;;14.10;99.90;;;;;;4917261;29;20026;-75
2021/07/11 03:54:11;;;;;;;;;;;14.00;99.90;;;;;;4917412;29;20018;-75
2021/07/11 03:56:38;;;;;;;;;;;14.00;99.90;;;;;;4917574;29;19926;-74
2021/07/11 03:59:06;;;;;;;;;;;14.00;99.90;;;;;;4917870;29;20030;-75
2021/07/11 04:01:38;;;;;;;;;;;14.00;99.90;;;;;;4934349;29;20018;-75
2021/07/11 04:04:13;;;;;;;;;;;14.00;99.90;;;;;;4917261;29;19934;-75
2021/07/11 04:06:46;;;;;;;;;;;14.00;99.90;;;;;;4918272;29;19930;-74
2021/07/11 04:09:15;;;;;;;;;;;14.00;99.90;;;;;;4917514;29;20002;-75
2021/07/11 04:11:42;;;;;;;;;;;13.90;99.90;;;;;;4917026;29;20041;-75
2021/07/11 04:14:09;;;;;;;;;;;14.00;99.90;;;;;;4917400;29;20021;-75
2021/07/11 04:16:41;;;;;;;;;;;14.00;99.90;;;;;;4917318;29;19930;-75
2021/07/11 04:19:19;;;;;;;;;;;14.00;99.90;;;;;;4917352;29;20390;-75
2021/07/11 04:21:52;;;;;;;;;;;13.90;99.90;;;;;;4902109;29;20033;-75
2021/07/11 04:24:24;;;;;;;;;;;14.00;99.90;;;;;;4933848;29;20029;-75
2021/07/11 04:26:56;;;;;;;;;;;14.00;99.90;;;;;;4919434;29;19926;-75
2021/07/11 04:29:29;;;;;;;;;;;14.00;99.90;;;;;;4921024;29;20319;-74
2021/07/11 04:31:56;;;;;;;;;;;14.00;99.90;;;;;;4904727;29;19926;-74
2021/07/11 04:34:26;;;;;;;;;;;14.00;99.90;;;;;;4920716;29;20398;-75
2021/07/11 04:36:59;;;;;;;;;;;14.00;99.90;;;;;;4906026;29;20025;-75
2021/07/11 04:39:26;;;;;;;;;;;14.00;99.90;;;;;;4920875;29;19973;-75
2021/07/11 04:41:53;;;;;;;;;;;14.00;99.90;;;;;;4952170;29;20088;-75
2021/07/11 04:44:25;;;;;;;;;;;14.00;99.90;;;;;;4952339;28;20027;-75
2021/07/11 04:46:51;;;;;;;;;;;14.00;99.90;;;;;;4920804;29;19954;-74
2021/07/11 04:49:24;;;;;;;;;;;14.00;99.90;;;;;;4920651;29;20010;-75
2021/07/11 04:51:55;;;;;;;;;;;14.00;99.90;;;;;;4905165;29;19966;-74
2021/07/11 04:54:23;;;;;;;;;;;14.00;99.90;;;;;;4920431;29;19934;-75
2021/07/11 04:56:54;;;;;;;;;;;14.00;99.90;;;;;;4920462;29;19933;-75
2021/07/11 04:59:27;;;;;;;;;;;14.10;99.90;;;;;;4921330;29;20006;-74
2021/07/11 05:01:54;;;;;;;;;;;14.10;99.90;;;;;;4920066;29;20342;-74
2021/07/11 05:04:21;;;;;;;;;;;14.10;99.90;;;;;;4920217;29;19985;-75
2021/07/11 05:06:52;;;;;;;;;;;14.10;99.90;;;;;;4936960;29;19968;-75
2021/07/11 05:09:19;;;;;;;;;;;14.10;99.90;;;;;;4920349;29;19966;-75
2021/07/11 05:11:51;;;;;;;;;;;14.20;99.90;;;;;;4919811;29;19927;-75
2021/07/11 05:14:23;;;;;;;;;;;14.20;99.90;;;;;;4920916;29;20011;-75
2021/07/11 05:16:54;;;;;;;;;;;14.30;99.90;;;;;;4905006;29;19928;-75
2021/07/11 05:19:21;;;;;;;;;;;14.30;99.90;;;;;;4904331;29;20025;-75
2021/07/11 05:21:47;;;;;;;;;;;14.30;99.90;;;;;;4919766;29;20022;-75
2021/07/11 05:24:19;;;;;;;;;;;14.30;99.90;;;;;;4920787;29;19933;-75
2021/07/11 05:26:51;;;;;;;;;;;14.30;99.90;;;;;;4919881;29;20033;-75
2021/07/11 05:29:22;;;;;;;;;;;14.30;99.90;;;;;;4904843;29;20017;-75
2021/07/11 05:31:49;;;;;;;;;;;14.30;99.90;;;;;;4919399;29;19927;-75
2021/07/11 05:34:21;;;;;;;;;;;14.40;99.90;;;;;;4919668;29;20025;-76
2021/07/11 05:36:53;;;;;;;;;;;14.40;99.90;;;;;;4919730;29;20021;-75
2021/07/11 05:39:24;;;;;;;;;;;14.40;99.90;;;;;;4919063;29;20313;-75
2021/07/11 05:41:56;;;;;;;;;;;14.40;99.90;;;;;;4919433;29;20013;-75
2021/07/11 05:44:23;;;;;;;;;;;14.40;99.90;;;;;;4919594;29;19926;-75
2021/07/11 05:46:49;;;;;;;;;;;14.40;99.90;;;;;;4919510;29;19989;-75
2021/07/11 05:49:21;;;;;;;;;;;14.40;99.90;;;;;;4936663;29;20029;-75
2021/07/11 05:51:48;;;;;;;;;;;14.50;99.90;;;;;;4919284;29;20368;-75
2021/07/11 05:54:14;;;;;;;;;;;14.50;99.90;;;;;;4919670;29;20017;-75
2021/07/11 05:56:46;;;;;;;;;;;14.50;99.90;;;;;;4936656;29;19982;-76
2021/07/11 05:59:18;;;;;;;;;;;14.60;99.90;;;;;;4919168;29;20025;-75
2021/07/11 06:01:44;;;;;;;;;;;14.60;99.90;;;;;;4918932;29;19963;-75
2021/07/11 06:04:16;;;;;;;;;;;14.60;99.90;;;;;;4918985;29;20021;-75
2021/07/11 06:06:47;;;;;;;;;;;14.70;99.90;;;;;;4919309;29;19926;-75
2021/07/11 06:09:14;;;;;;;;;;;14.70;99.90;;;;;;4919273;29;20385;-75
2021/07/11 06:11:46;;;;;;;;;;;14.70;99.90;;;;;;4935708;29;19927;-75
2021/07/11 06:14:14;;;;;;;;;;;14.80;99.90;;;;;;4919023;29;20021;-75
2021/07/11 06:16:46;;;;;;;;;;;14.90;99.90;;;;;;4919081;29;20038;-75
2021/07/11 06:19:18;;;;;;;;;;;14.80;99.90;;;;;;4919126;29;19926;-75
2021/07/11 06:21:49;;;;;;;;;;;14.90;99.90;;;;;;4918622;29;19926;-75
2021/07/11 06:24:21;;;;;;;;;;;14.90;99.90;;;;;;4920332;29;20033;-74
2021/07/11 06:26:48;;;;;;;;;;;15.00;99.90;;;;;;4918805;29;19933;-76
2021/07/11 06:29:19;;;;;;;;;;;15.10;99.90;;;;;;4924599;29;19974;-75
2021/07/11 06:31:51;;;;;;;;;;;15.10;99.90;;;;;;4919216;29;19931;-75
2021/07/11 06:34:18;;;;;;;;;;;15.10;99.90;;;;;;4903065;29;19970;-75
2021/07/11 06:36:45;;;;;;;;;;;15.20;99.90;;;;;;4917802;29;20025;-75
2021/07/11 06:39:18;;;;;;;;;;;15.20;99.90;;;;;;4935414;29;20291;-75
2021/07/11 06:41:44;;;;;;;;;;;15.40;99.90;;;;;;4918129;29;19981;-75
2021/07/11 06:44:11;;;;;;;;;;;15.40;99.90;;;;;;4918434;29;19978;-75
2021/07/11 06:46:43;;;;;;;;;;;15.30;99.90;;;;;;4919306;29;20342;-75
2021/07/11 06:49:10;;;;;;;;;;;15.30;99.90;;;;;;4935172;29;20030;-75
2021/07/11 06:51:41;;;;;;;;;;;15.30;99.90;;;;;;4934691;29;19982;-75
2021/07/11 06:54:13;;;;;;;;;;;15.30;99.90;;;;;;4935277;29;19926;-75
2021/07/11 06:56:45;;;;;;;;;;;15.30;99.90;;;;;;4935001;29;20021;-75
2021/07/11 06:59:11;;;;;;;;;;;15.40;99.90;;;;;;4917779;29;20030;-75
2021/07/11 07:01:43;;;;;;;;;;;15.40;99.90;;;;;;4916975;29;20013;-75
2021/07/11 07:04:09;;;;;;;;;;;15.40;99.90;;;;;;4916644;29;19955;-75
2021/07/11 07:06:36;;;;;;;;;;;15.40;99.90;;;;;;4900409;29;19933;-75
2021/07/11 07:09:03;;;;;;;;;;;15.40;99.90;;;;;;4933868;29;19986;-74
2021/07/11 07:11:35;;;;;;;;;;;15.40;99.90;;;;;;4917284;29;19933;-75
2021/07/11 07:14:07;;;;;;;;;;;15.40;99.90;;;;;;4901787;29;20429;-78
2021/07/11 07:16:33;;;;;;;;;;;15.40;99.90;;;;;;4917002;29;19927;-75
2021/07/11 07:19:00;;;;;;;;;;;15.40;99.90;;;;;;4917150;29;20021;-75
2021/07/11 07:21:27;;;;;;;;;;;15.50;99.90;;;;;;4926863;29;19933;-75
2021/07/11 07:23:53;;;;;;;;;;;15.50;99.90;;;;;;4935466;29;20037;-76
2021/07/11 07:26:25;;;;;;;;;;;15.60;99.90;;;;;;4901357;29;19927;-76
2021/07/11 07:28:52;;;;;;;;;;;15.60;99.90;;;;;;4913341;29;20295;-75
2021/07/11 07:31:18;;;;;;;;;;;15.70;99.90;;;;;;4914230;29;19966;-75
2021/07/11 07:33:50;;;;;;;;;;;15.70;99.90;;;;;;4913077;29;19943;-75
2021/07/11 07:36:17;;;;;;;;;;;15.80;99.90;;;;;;4913338;29;19938;-75
2021/07/11 07:38:43;;;;;;;;;;;15.80;99.90;;;;;;4912916;29;20013;-75
2021/07/11 07:41:10;;;;;;;;;;;15.90;99.90;;;;;;4910310;29;20022;-75
2021/07/11 07:43:37;;;;;;;;;;;16.00;99.90;;;;;;4912834;29;20035;-75
2021/07/11 07:46:04;;;;;;;;;;;16.10;99.90;;;;;;4916430;29;19930;-75
2021/07/11 07:48:35;;;;;;;;;;;16.20;99.90;;;;;;4933440;29;20399;-75
2021/07/11 07:51:07;;;;;;;;;;;16.30;99.90;;;;;;4900537;29;19926;-75
2021/07/11 07:53:38;;;;;;;;;;;16.30;99.90;;;;;;4928411;29;19927;-75
2021/07/11 07:56:10;;;;;;;;;;;16.40;99.90;;;;;;4896934;29;20018;-75
2021/07/11 07:58:42;;;;;;;;;;;16.50;99.90;;;;;;4897315;29;20485;-76
2021/07/11 08:01:09;;;;;;;;;;;16.60;99.90;;;;;;4908833;29;19999;-75
2021/07/11 08:03:35;;;;;;;;;;;16.70;99.90;;;;;;4905048;29;20030;-75
2021/07/11 08:06:02;;;;;;;;;;;16.90;99.90;;;;;;4904089;29;19930;-75
2021/07/11 08:08:29;;;;;;;;;;;16.90;99.90;;;;;;4919331;29;20041;-75
2021/07/11 08:11:00;;;;;;;;;;;17.10;99.90;;;;;;4920425;29;19974;-75
2021/07/11 08:13:32;;;;;;;;;;;17.20;99.90;;;;;;4920298;29;19937;-75
2021/07/11 08:15:59;;;;;;;;;;;17.40;99.90;;;;;;4937060;29;19926;-75
2021/07/11 08:18:31;;;;;;;;;;;17.40;99.90;;;;;;4920283;29;19927;-75
2021/07/11 08:20:57;;;;;;;;;;;17.30;99.90;;;;;;4920863;29;20017;-75
2021/07/11 08:23:24;;;;;;;;;;;17.40;99.90;;;;;;4921046;29;20318;-75
2021/07/11 08:25:56;;;;;;;;;;;17.50;99.90;;;;;;4921368;29;20271;-75
2021/07/11 08:28:27;;;;;;;;;;;17.60;99.90;;;;;;4921028;29;19927;-75
2021/07/11 08:30:59;;;;;;;;;;;17.80;99.90;;;;;;4937490;29;20017;-75
2021/07/11 08:33:31;;;;;;;;;;;18.00;99.90;;;;;;4920627;29;20005;-75
2021/07/11 08:35:59;;;;;;;;;;;18.20;99.90;;;;;;4920602;29;19969;-75
2021/07/11 08:38:31;;;;;;;;;;;18.20;99.90;;;;;;4905323;29;20033;-75
2021/07/11 08:41:02;;;;;;;;;;;18.30;99.90;;;;;;4920204;29;20017;-75
2021/07/11 08:43:37;;;;;;;;;;;18.20;99.90;;;;;;4921185;29;20021;-74
2021/07/11 08:46:03;;;;;;;;;;;18.20;99.90;;;;;;4920302;29;20021;-75
2021/07/11 08:48:30;;;;;;;;;;;18.20;99.90;;;;;;4920114;29;19958;-75
2021/07/11 08:51:01;;;;;;;;;;;18.30;99.90;;;;;;4920025;29;20449;-74
2021/07/11 08:53:28;;;;;;;;;;;18.30;99.90;;;;;;4904287;29;19958;-75
2021/07/11 08:55:54;;;;;;;;;;;18.30;99.90;;;;;;4937059;29;20017;-74
2021/07/11 08:58:27;;;;;;;;;;;18.40;99.90;;;;;;4920710;29;20025;-75
2021/07/11 09:00:54;;;;;;;;;;;18.40;99.90;;;;;;4903724;29;19970;-74
2021/07/11 09:03:21;;;;;;;;;;;18.40;99.90;;;;;;4935248;29;20388;-75
2021/07/11 09:05:52;;;;;;;;;;;18.30;99.90;;;;;;4919873;29;20325;-74
2021/07/11 09:08:24;;;;;;;;;;;18.20;99.90;;;;;;4904231;29;19927;-75
2021/07/11 09:10:57;;;;;;;;;;;18.20;99.90;;;;;;4903615;29;19927;-75
2021/07/11 09:13:25;;;;;;;;;;;18.30;99.90;;;;;;4917588;29;19926;-75
2021/07/11 09:15:53;;;;;;;;;;;18.30;99.90;;;;;;4936077;29;20042;-74
2021/07/11 09:18:26;;;;;;;;;;;18.30;99.90;;;;;;4904001;29;20033;-74
2021/07/11 09:21:00;;;;;;;;;;;18.30;99.90;;;;;;4903718;29;19933;-75
2021/07/11 09:23:32;;;;;;;;;;;18.40;99.90;;;;;;4903785;29;19927;-74
2021/07/11 09:26:05;;;;;;;;;;;18.50;99.90;;;;;;4918677;29;20324;-75
2021/07/11 09:28:33;;;;;;;;;;;18.60;99.90;;;;;;4902948;29;19982;-74
2021/07/11 09:31:03;;;;;;;;;;;18.70;99.90;;;;;;4902579;29;20014;-74
2021/07/11 09:33:29;;;;;;;;;;;18.90;99.90;;;;;;4918779;29;20041;-74
2021/07/11 09:36:03;;;;;;;;;;;18.90;99.90;;;;;;4903629;29;20282;-74
2021/07/11 09:38:30;;;;;;;;;;;18.80;99.90;;;;;;4918681;29;19958;-74
2021/07/11 09:41:20;;;;;;;;;;;18.80;99.90;;;;;;4918604;29;19927;-74
2021/07/11 09:43:46;;;;;;;;;;;18.70;99.90;;;;;;4918952;29;19927;-74
2021/07/11 09:46:14;;;;;;;;;;;18.60;99.90;;;;;;4918972;29;19930;-75
2021/07/11 09:48:40;;;;;;;;;;;18.50;99.90;;;;;;4919194;29;19927;-74
2021/07/11 09:51:23;;;;;;;;;;;18.60;99.90;;;;;;4918435;29;19962;-74
2021/07/11 09:53:50;;;;;;;;;;;18.80;99.90;;;;;;4918823;29;20357;-74
2021/07/11 09:56:37;;;;;;;;;;;19.10;99.90;;;;;;4918884;29;20046;-75
2021/07/11 09:59:04;;;;;;;;;;;19.40;99.90;;;;;;4903072;29;19970;-75
2021/07/11 10:01:32;;;;;;;;;;;19.70;99.90;;;;;;4935261;29;20276;-74
2021/07/11 10:03:59;;;;;;;;;;;19.90;99.90;;;;;;4918412;29;19974;-75
2021/07/11 10:06:31;;;;;;;;;;;19.90;99.90;;;;;;4903840;29;19974;-75
2021/07/11 10:09:04;;;;;;;;;;;20.00;99.90;;;;;;4918425;29;20374;-74
2021/07/11 10:11:31;;;;;;;;;;;19.90;99.90;;;;;;4919729;29;20336;-74
2021/07/11 10:14:03;;;;;;;;;;;19.80;99.90;;;;;;4937294;29;20030;-74
2021/07/11 10:16:36;;;;;;;;;;;19.70;99.90;;;;;;4937392;29;20026;-74
2021/07/11 10:19:08;;;;;;;;;;;19.50;99.90;;;;;;4938174;29;19926;-75
2021/07/11 10:21:44;;;;;;;;;;;19.40;99.90;;;;;;4953887;29;20012;-75
2021/07/11 10:24:16;;;;;;;;;;;19.40;99.90;;;;;;4920505;29;20016;-75
2021/07/11 10:26:48;;;;;;;;;;;19.30;99.90;;;;;;4921907;29;20308;-75
2021/07/11 10:29:21;;;;;;;;;;;19.30;99.90;;;;;;4936914;29;20025;-76
2021/07/11 10:31:49;;;;;;;;;;;19.50;99.90;;;;;;4920839;29;20017;-74
2021/07/11 10:34:31;;;;;;;;;;;19.80;99.90;;;;;;4917500;29;19927;-75
2021/07/11 10:37:09;;;;;;;;;;;20.00;99.90;;;;;;4916837;29;19927;-75
2021/07/11 10:39:36;;;;;;;;;;;20.40;99.90;;;;;;4917063;29;20041;-75
2021/07/11 10:42:02;;;;;;;;;;;20.80;99.90;;;;;;4900943;29;19927;-75
2021/07/11 10:44:34;;;;;;;;;;;21.10;99.90;;;;;;4917660;29;20362;-75
2021/07/11 10:47:06;;;;;;;;;;;21.40;99.90;;;;;;4916595;29;20029;-75
2021/07/11 10:49:34;;;;;;;;;;;21.60;99.90;;;;;;4914987;29;20412;-75
2021/07/11 10:52:04;;;;;;;;;;;21.60;99.90;;;;;;4904856;29;19927;-75
2021/07/11 10:54:33;;;;;;;;;;;21.60;99.90;;;;;;4925406;29;20371;-75
2021/07/11 10:57:05;;;;;;;;;;;21.40;99.90;;;;;;4920581;29;20406;-75
2021/07/11 10:59:38;;;;;;;;;;;21.30;99.90;;;;;;4915551;29;19927;-75
2021/07/11 11:02:15;;;;;;;;;;;21.30;99.90;;;;;;4907310;29;19927;-74
2021/07/11 11:04:47;;;;;;;;;;;21.10;99.90;;;;;;4920619;29;19954;-74
2021/07/11 11:07:17;;;;;;;;;;;21.00;99.90;;;;;;4911712;29;20024;-75
2021/07/11 11:09:47;;;;;;;;;;;21.10;99.90;;;;;;4916456;29;19931;-75
2021/07/11 11:12:26;;;;;;;;;;;21.10;99.90;;;;;;4922895;29;20025;-75
2021/07/11 11:15:00;;;;;;;;;;;21.10;99.90;;;;;;4919654;29;19930;-75
2021/07/11 11:17:34;;;;;;;;;;;21.00;99.90;;;;;;4900736;29;19962;-75
2021/07/11 11:20:07;;;;;;;;;;;21.00;99.90;;;;;;4917360;29;20018;-75
2021/07/11 11:22:34;;;;;;;;;;;21.00;99.90;;;;;;4916498;29;19965;-75
2021/07/11 11:25:03;;;;;;;;;;;20.90;99.90;;;;;;4917142;29;19973;-75
2021/07/11 11:27:37;;;;;;;;;;;20.60;99.90;;;;;;4916355;29;19994;-74
2021/07/11 11:30:11;;;;;;;;;;;20.50;99.90;;;;;;4934361;29;19961;-74
2021/07/11 11:32:38;;;;;;;;;;;20.40;99.90;;;;;;4901138;29;20023;-74
2021/07/11 11:35:10;;;;;;;;;;;20.20;99.90;;;;;;4902851;29;19933;-75
2021/07/11 11:37:47;;;;;;;;;;;20.00;99.90;;;;;;4902339;29;19927;-74
2021/07/11 11:40:16;;;;;;;;;;;19.80;99.90;;;;;;4934180;29;19927;-74
2021/07/11 11:42:44;;;;;;;;;;;19.60;99.90;;;;;;4901385;29;20460;-75
2021/07/11 11:45:16;;;;;;;;;;;19.50;99.90;;;;;;4883862;29;20519;-75
2021/07/11 11:47:43;;;;;;;;;;;19.40;99.90;;;;;;4914316;29;19935;-75
2021/07/11 11:50:14;;;;;;;;;;;19.30;99.90;;;;;;4909432;29;19933;-75
2021/07/11 11:52:41;;;;;;;;;;;19.30;99.90;;;;;;4901467;29;20387;-75
2021/07/11 11:55:08;;;;;;;;;;;19.30;99.90;;;;;;4918061;29;19926;-75
2021/07/11 11:57:41;;;;;;;;;;;19.20;99.90;;;;;;4918728;29;19927;-75
2021/07/11 12:00:14;;;;;;;;;;;19.20;99.90;;;;;;4918323;29;19938;-75
2021/07/11 12:02:46;;;;;;;;;;;19.10;99.90;;;;;;4915569;29;19941;-75
2021/07/11 12:05:14;;;;;;;;;;;18.90;99.90;;;;;;4933712;29;19977;-75
2021/07/11 12:07:46;;;;;;;;;;;18.80;99.90;;;;;;4933604;29;20017;-75
2021/07/11 12:10:13;;;;;;;;;;;18.80;99.90;;;;;;4915751;29;20084;-75
2021/07/11 12:12:52;;;;;;;;;;;18.70;99.90;;;;;;4900833;29;19927;-75
2021/07/11 12:15:28;;;;;;;;;;;18.70;99.90;;;;;;4920106;29;20029;-75
2021/07/11 12:17:58;;;;;;;;;;;18.70;99.90;;;;;;4902520;29;19970;-75
2021/07/11 12:20:30;;;;;;;;;;;18.80;99.90;;;;;;4918466;29;19966;-75
2021/07/11 12:23:12;;;;;;;;;;;18.80;99.90;;;;;;4917501;29;20485;-75
2021/07/11 12:25:41;;;;;;;;;;;19.00;99.90;;;;;;4901525;29;19962;-76
2021/07/11 12:28:10;;;;;;;;;;;19.10;99.90;;;;;;4901482;29;19973;-74
2021/07/11 12:30:44;;;;;;;;;;;19.10;99.90;;;;;;4917784;29;19966;-75
2021/07/11 12:33:26;;;;;;;;;;;19.10;99.90;;;;;;4916088;29;19933;-75
2021/07/11 12:35:58;;;;;;;;;;;19.20;99.90;;;;;;4916753;29;19978;-75
2021/07/11 12:38:29;;;;;;;;;;;19.20;99.90;;;;;;4916813;29;20358;-75
2021/07/11 12:40:56;;;;;;;;;;;19.30;99.90;;;;;;4916593;29;19926;-75
2021/07/11 12:43:32;;;;;;;;;;;19.30;99.90;;;;;;4916418;29;20017;-75
2021/07/11 12:46:09;;;;;;;;;;;19.50;99.90;;;;;;4917893;29;20033;-75
2021/07/11 12:48:44;;;;;;;;;;;19.90;99.90;;;;;;4904027;29;19926;-75
2021/07/11 12:51:18;;;;;;;;;;;20.30;99.90;;;;;;4904772;29;20404;-75
2021/07/11 12:53:49;;;;;;;;;;;20.60;99.90;;;;;;4901074;29;20029;-75
2021/07/11 12:56:25;;;;;;;;;;;20.90;99.90;;;;;;4903343;29;20317;-75
2021/07/11 12:59:01;;;;;;;;;;;21.10;99.90;;;;;;4909326;29;19949;-76
2021/07/11 13:01:28;;;;;;;;;;;21.30;99.90;;;;;;4919339;29;19926;-76
2021/07/11 13:04:00;;;;;;;;;;;21.30;99.90;;;;;;4920049;29;19953;-76
2021/07/11 13:06:33;;;;;;;;;;;21.40;99.90;;;;;;4919501;29;19926;-76
2021/07/11 13:09:06;;;;;;;;;;;21.40;99.90;;;;;;4899653;29;19937;-76
2021/07/11 13:11:38;;;;;;;;;;;21.40;99.90;;;;;;4919106;29;19950;-75
2021/07/11 13:14:05;;;;;;;;;;;21.60;99.90;;;;;;4935436;29;20607;-75
2021/07/11 13:16:32;;;;;;;;;;;21.80;99.90;;;;;;4919459;29;20408;-76
2021/07/11 13:19:04;;;;;;;;;;;22.00;99.90;;;;;;4920330;29;19978;-75
2021/07/11 13:21:35;;;;;;;;;;;22.20;99.90;;;;;;4902759;29;20033;-76
2021/07/11 13:24:07;;;;;;;;;;;22.50;99.90;;;;;;4916362;29;20362;-75
2021/07/11 13:26:39;;;;;;;;;;;22.70;99.90;;;;;;4955594;29;19931;-76
2021/07/11 13:29:12;;;;;;;;;;;22.80;99.90;;;;;;4934146;29;20014;-75
2021/07/11 13:31:39;;;;;;;;;;;22.80;99.90;;;;;;4915041;29;19927;-75
2021/07/11 13:34:05;;;;;;;;;;;22.80;99.90;;;;;;4909785;29;20029;-74
2021/07/11 13:36:32;;;;;;;;;;;23.10;99.90;;;;;;4912167;29;19954;-75
2021/07/11 13:39:01;;;;;;;;;;;23.20;99.90;;;;;;4913775;29;20357;-75
2021/07/11 13:41:30;;;;;;;;;;;23.10;99.90;;;;;;4934186;29;19927;-76
2021/07/11 13:43:57;;;;;;;;;;;23.30;99.90;;;;;;4943915;28;19966;-75
2021/07/11 13:46:24;;;;;;;;;;;23.50;99.90;;;;;;4903898;29;20493;-74
2021/07/11 13:48:56;;;;;;;;;;;23.40;99.90;;;;;;4919974;29;19982;-74
2021/07/11 13:51:23;;;;;;;;;;;23.20;99.90;;;;;;4919637;29;19954;-74
2021/07/11 13:53:50;;;;;;;;;;;23.10;99.90;;;;;;4938797;29;19935;-74
2021/07/11 13:56:22;;;;;;;;;;;23.20;99.90;;;;;;4918656;29;19963;-75
2021/07/11 13:58:54;;;;;;;;;;;23.20;99.90;;;;;;4923448;29;19934;-75
2021/07/11 14:01:23;;;;;;;;;;;23.40;99.90;;;;;;4906942;29;19974;-74
2021/07/11 14:03:55;;;;;;;;;;;23.50;99.90;;;;;;4940225;28;19934;-75
2021/07/11 14:06:22;;;;;;;;;;;23.60;99.90;;;;;;4923334;29;19926;-75
2021/07/11 14:08:49;;;;;;;;;;;23.80;99.90;;;;;;4923830;29;19961;-75
2021/07/11 14:11:18;;;;;;;;;;;23.90;99.90;;;;;;4923299;29;19966;-75
2021/07/11 14:13:50;;;;;;;;;;;23.90;99.90;;;;;;4926853;29;19938;-75
2021/07/11 14:16:16;;;;;;;;;;;23.80;99.90;;;;;;4928114;29;19930;-75
2021/07/11 14:18:45;;;;;;;;;;;23.80;99.90;;;;;;4925089;29;20309;-75
2021/07/11 14:21:16;;;;;;;;;;;23.70;99.90;;;;;;4903307;29;19931;-75
2021/07/11 14:23:43;;;;;;;;;;;23.80;99.90;;;;;;4917426;29;20017;-75
2021/07/11 14:26:15;;;;;;;;;;;24.20;99.90;;;;;;4918245;29;19937;-75
2021/07/11 14:28:47;;;;;;;;;;;24.50;99.90;;;;;;4917121;29;19927;-75
2021/07/11 14:31:19;;;;;;;;;;;24.30;99.90;;;;;;4915469;29;19937;-75
2021/07/11 14:33:45;;;;;;;;;;;24.10;99.90;;;;;;4917830;29;20034;-75
2021/07/11 14:36:12;;;;;;;;;;;23.90;99.90;;;;;;4934723;29;19933;-75